createdAt,value
2019-04-05T00:00:33.916Z,64.60
2019-04-05T00:03:02.820Z,64.47
2019-04-05T00:05:30.598Z,67.93
2019-04-05T00:07:58.412Z,66.80
2019-04-05T00:10:26.154Z,63.87
2019-04-05T00:12:54.206Z,67.47
2019-04-05T00:15:21.931Z,65.63
2019-04-05T00:17:49.702Z,64.23
2019-04-05T00:20:17.419Z,67.77
2019-04-05T00:22:45.165Z,64.77
2019-04-05T00:25:12.922Z,65.63
2019-04-05T00:27:40.684Z,70.20
2019-04-05T00:30:08.809Z,68.83
2019-04-05T00:32:36.575Z,68.97
2019-04-05T00:35:04.634Z,71.77
2019-04-05T00:37:32.379Z,66.53
2019-04-05T00:40:00.102Z,61.07
2019-04-05T00:42:27.859Z,67.00
2019-04-05T00:44:55.580Z,65.00
2019-04-05T00:47:23.427Z,65.60
2019-04-05T00:49:51.142Z,62.13
2019-04-05T00:52:18.902Z,63.93
2019-04-05T00:54:46.626Z,58.97
2019-04-05T00:57:14.407Z,61.60
2019-04-05T00:59:42.135Z,66.00
2019-04-05T01:02:09.856Z,59.27
2019-04-05T01:04:37.625Z,60.60
2019-04-05T01:07:05.579Z,60.87
2019-04-05T01:09:33.361Z,57.23
2019-04-05T01:12:01.618Z,55.63
2019-04-05T01:14:29.959Z,62.53
2019-04-05T01:16:57.803Z,58.87
2019-04-05T01:19:31.479Z,59.47
2019-04-05T01:22:04.979Z,55.57
2019-04-05T01:24:33.459Z,58.67
2019-04-05T01:27:02.948Z,61.87
2019-04-05T01:29:30.695Z,62.73
2019-04-05T01:31:58.412Z,61.50
2019-04-05T01:34:26.163Z,61.20
2019-04-05T01:36:54.105Z,57.83
2019-04-05T01:39:21.851Z,58.70
2019-04-05T01:41:49.995Z,61.73
2019-04-05T01:44:18.148Z,61.33
2019-04-05T01:46:45.904Z,62.73
2019-04-05T01:49:13.666Z,59.73
2019-04-05T01:51:41.870Z,70.87
2019-04-05T01:54:09.728Z,65.57
2019-04-05T01:56:37.470Z,63.07
2019-04-05T01:59:05.200Z,64.67
2019-04-05T02:01:32.930Z,63.37
2019-04-05T02:04:00.684Z,69.10
2019-04-05T02:06:28.820Z,62.43
2019-04-05T02:08:56.677Z,60.97
2019-04-05T02:11:24.501Z,62.67
2019-04-05T02:13:52.451Z,59.60
2019-04-05T02:16:20.190Z,58.20
2019-04-05T02:18:47.945Z,61.93
2019-04-05T02:21:15.680Z,62.93
2019-04-05T02:23:43.525Z,57.87
2019-04-05T02:26:11.378Z,61.60
2019-04-05T02:28:39.135Z,62.40
2019-04-05T02:31:06.905Z,61.00
2019-04-05T02:33:34.641Z,57.57
2019-04-05T02:36:02.384Z,57.43
2019-04-05T02:38:30.101Z,56.87
2019-04-05T02:41:00.272Z,60.93
2019-04-05T02:43:32.882Z,60.97
2019-04-05T02:46:02.704Z,61.23
2019-04-05T02:48:35.947Z,58.83
2019-04-05T02:51:05.780Z,59.33
2019-04-05T02:53:35.718Z,59.63
2019-04-05T02:56:05.319Z,62.00
2019-04-05T02:58:35.344Z,58.27
2019-04-05T03:01:03.179Z,69.03
2019-04-05T03:03:31.018Z,65.20
2019-04-05T03:05:58.757Z,62.63
2019-04-05T03:08:26.898Z,64.83
2019-04-05T03:11:10.409Z,66.23
2019-04-05T03:13:47.812Z,68.93
2019-04-05T03:16:38.503Z,67.77
2019-04-05T03:19:05.513Z,70.00
2019-04-05T03:21:38.361Z,72.07
2019-04-05T03:24:11.598Z,74.70
2019-04-05T03:26:45.354Z,73.53
2019-04-05T03:29:13.398Z,78.57
2019-04-05T03:31:41.426Z,83.37
2019-04-05T03:34:09.589Z,85.40
2019-04-05T03:36:38.358Z,85.70
2019-04-05T03:39:07.039Z,86.13
2019-04-05T03:41:35.427Z,77.40
2019-04-05T03:44:03.457Z,88.77
2019-04-05T03:46:32.117Z,86.07
2019-04-05T03:49:00.190Z,82.03
2019-04-05T03:51:28.118Z,92.63
2019-04-05T03:53:55.970Z,88.13
2019-04-05T03:56:24.155Z,88.13
2019-04-05T03:58:51.954Z,85.93
2019-04-05T04:01:19.728Z,89.20
2019-04-05T04:03:47.542Z,89.33
2019-04-05T04:06:15.460Z,97.87
2019-04-05T04:08:43.360Z,92.50
2019-04-05T04:11:11.278Z,91.70
2019-04-05T04:13:39.327Z,88.10
2019-04-05T04:16:07.168Z,90.63
2019-04-05T04:18:35.296Z,93.87
2019-04-05T04:21:31.689Z,87.83
2019-04-05T04:23:59.518Z,97.57
2019-04-05T04:26:27.380Z,96.30
2019-04-05T04:28:56.118Z,92.63
2019-04-05T04:31:24.051Z,94.83
2019-04-05T04:33:52.298Z,90.83
2019-04-05T04:36:20.883Z,88.63
2019-04-05T04:38:49.539Z,97.27
2019-04-05T04:41:17.380Z,95.13
2019-04-05T04:43:45.128Z,94.93
2019-04-05T04:46:12.900Z,92.37
2019-04-05T04:48:41.510Z,93.60
2019-04-05T04:51:10.141Z,85.07
2019-04-05T04:53:38.393Z,88.60
2019-04-05T04:56:06.577Z,89.13
2019-04-05T04:58:34.615Z,89.50
2019-04-05T05:01:03.055Z,91.77
2019-04-05T05:03:31.097Z,90.73
2019-04-05T05:05:58.921Z,91.73
2019-04-05T05:08:26.782Z,95.70
2019-04-05T05:10:54.805Z,114.43
2019-04-05T05:13:22.864Z,100.77
2019-04-05T05:15:50.730Z,104.27
2019-04-05T05:18:18.803Z,97.10
2019-04-05T05:20:46.651Z,96.40
2019-04-05T05:23:14.512Z,96.03
2019-04-05T05:25:42.465Z,103.83
2019-04-05T05:28:10.428Z,97.47
2019-04-05T05:30:38.169Z,97.57
2019-04-05T05:33:05.932Z,94.93
2019-04-05T05:35:33.830Z,99.13
2019-04-05T05:38:01.926Z,95.90
2019-04-05T05:40:35.027Z,94.83
2019-04-05T05:42:59.311Z,93.70
2019-04-05T05:45:27.024Z,94.43
2019-04-05T05:47:54.947Z,101.57
2019-04-05T05:50:22.680Z,91.80
2019-04-05T05:52:51.060Z,97.83
2019-04-05T05:55:18.896Z,96.80
2019-04-05T05:57:46.645Z,105.00
2019-04-05T06:00:19.039Z,93.53
2019-04-05T06:02:48.410Z,87.87
2019-04-05T06:05:16.424Z,89.23
2019-04-05T06:07:45.342Z,81.43
2019-04-05T06:10:13.108Z,84.00
2019-04-05T06:12:40.838Z,96.20
2019-04-05T06:15:09.134Z,85.20
2019-04-05T06:17:36.854Z,89.70
2019-04-05T06:20:06.232Z,90.83
2019-04-05T06:22:33.969Z,89.80
2019-04-05T06:25:01.737Z,97.67
2019-04-05T06:27:30.294Z,86.93
2019-04-05T06:29:58.050Z,86.17
2019-04-05T06:32:25.826Z,80.30
2019-04-05T06:34:56.420Z,81.07
2019-04-05T06:37:24.186Z,84.90
2019-04-05T06:39:51.907Z,87.67
2019-04-05T06:42:19.627Z,85.20
2019-04-05T06:44:47.407Z,82.47
2019-04-05T06:47:15.309Z,89.87
2019-04-05T06:49:43.141Z,84.23
2019-04-05T06:52:10.959Z,91.23
2019-04-05T06:54:38.711Z,85.77
2019-04-05T06:57:06.473Z,89.43
2019-04-05T06:59:34.447Z,83.33
2019-04-05T07:02:02.188Z,89.63
2019-04-05T07:04:31.153Z,83.70
2019-04-05T07:06:59.164Z,86.00
2019-04-05T07:09:26.903Z,83.90
2019-04-05T07:11:54.661Z,84.43
2019-04-05T07:14:22.422Z,85.87
2019-04-05T07:16:50.203Z,80.87
2019-04-05T07:19:17.943Z,86.57
2019-04-05T07:21:45.711Z,81.17
2019-04-05T07:24:13.459Z,85.87
2019-04-05T07:26:41.191Z,79.83
2019-04-05T07:29:08.952Z,75.50
2019-04-05T07:31:36.721Z,76.27
2019-04-05T07:34:04.840Z,74.97
2019-04-05T07:36:32.603Z,78.67
2019-04-05T07:39:00.448Z,77.30
2019-04-05T07:41:28.497Z,77.20
2019-04-05T07:44:02.605Z,74.90
2019-04-05T07:46:30.603Z,76.17
2019-04-05T07:48:58.331Z,67.23
2019-04-05T07:51:26.101Z,64.10
2019-04-05T07:53:53.871Z,70.77
2019-04-05T07:56:22.440Z,71.67
2019-04-05T07:58:50.242Z,67.63
2019-04-05T08:01:18.034Z,66.00
2019-04-05T08:03:46.630Z,64.73
2019-04-05T08:06:15.128Z,67.63
2019-04-05T08:09:02.404Z,71.17
2019-04-05T08:11:30.616Z,66.07
2019-04-05T08:14:01.166Z,71.77
2019-04-05T08:16:29.010Z,70.17
2019-04-05T08:18:58.322Z,82.17
2019-04-05T08:21:26.201Z,76.57
2019-04-05T08:23:54.036Z,70.93
2019-04-05T08:26:21.895Z,72.57
2019-04-05T08:28:49.654Z,74.73
2019-04-05T08:31:17.404Z,74.90
2019-04-05T08:33:45.209Z,75.73
2019-04-05T08:36:13.062Z,79.00
2019-04-05T08:38:40.805Z,71.70
2019-04-05T08:41:08.598Z,78.30
2019-04-05T08:43:36.348Z,74.13
2019-04-05T08:46:04.201Z,72.40
2019-04-05T08:48:31.955Z,72.77
2019-04-05T08:50:59.758Z,63.97
2019-04-05T08:53:27.527Z,68.27
2019-04-05T08:55:55.277Z,75.10
2019-04-05T08:58:32.813Z,73.83
2019-04-05T09:00:53.823Z,73.13
2019-04-05T09:03:21.616Z,72.00
2019-04-05T09:05:49.350Z,66.53
2019-04-05T09:08:17.130Z,58.50
2019-04-05T09:10:45.139Z,54.63
2019-04-05T09:13:12.889Z,60.80
2019-04-05T09:15:41.074Z,60.83
2019-04-05T09:18:09.770Z,58.73
2019-04-05T09:20:37.569Z,61.27
2019-04-05T09:23:05.348Z,56.67
2019-04-05T09:25:33.176Z,53.93
2019-04-05T09:28:00.962Z,56.40
2019-04-05T09:30:28.706Z,58.37
2019-04-05T09:32:56.598Z,56.53
2019-04-05T09:35:24.414Z,60.53
2019-04-05T09:37:52.545Z,55.83
2019-04-05T09:40:21.294Z,56.47
2019-04-05T09:42:49.397Z,52.67
2019-04-05T09:45:17.106Z,56.37
2019-04-05T09:47:44.912Z,52.80
2019-04-05T09:50:13.955Z,53.90
2019-04-05T09:52:41.732Z,52.73
2019-04-05T09:55:10.066Z,56.40
2019-04-05T09:57:37.907Z,55.47
2019-04-05T10:00:12.992Z,57.80
2019-04-05T10:02:41.861Z,54.87
2019-04-05T10:05:11.556Z,58.03
2019-04-05T10:07:53.803Z,58.00
2019-04-05T10:10:09.382Z,59.07
2019-04-05T10:12:37.152Z,54.83
2019-04-05T10:15:05.506Z,56.47
2019-04-05T10:17:33.261Z,56.97
2019-04-05T10:20:00.984Z,52.80
2019-04-05T10:22:28.987Z,56.43
2019-04-05T10:24:56.756Z,55.03
2019-04-05T10:27:24.575Z,55.93
2019-04-05T10:29:52.366Z,58.30
2019-04-05T10:32:20.109Z,59.33
2019-04-05T10:34:47.849Z,51.43
2019-04-05T10:37:15.626Z,57.20
2019-04-05T10:39:43.424Z,56.33
2019-04-05T10:42:29.808Z,49.47
2019-04-05T10:44:57.753Z,55.07
2019-04-05T10:47:25.515Z,53.87
2019-04-05T10:50:02.867Z,48.07
2019-04-05T10:52:22.973Z,52.13
2019-04-05T10:54:52.991Z,50.80
2019-04-05T10:57:20.863Z,62.17
2019-04-05T10:59:48.669Z,51.07
2019-04-05T11:02:16.385Z,54.27
2019-04-05T11:04:44.140Z,55.63
2019-04-05T11:07:11.904Z,59.00
2019-04-05T11:09:39.663Z,59.37
2019-04-05T11:12:08.740Z,51.03
2019-04-05T11:14:36.906Z,57.53
2019-04-05T11:17:05.152Z,54.60
2019-04-05T11:19:36.225Z,53.77
2019-04-05T11:22:03.102Z,51.50
2019-04-05T11:24:30.890Z,55.97
2019-04-05T11:26:58.906Z,59.53
2019-04-05T11:29:26.716Z,47.43
2019-04-05T11:31:57.447Z,56.33
2019-04-05T11:34:24.190Z,53.67
2019-04-05T11:36:52.377Z,55.23
2019-04-05T11:39:20.656Z,53.30
2019-04-05T11:41:52.190Z,51.30
2019-04-05T11:44:22.877Z,46.30
2019-04-05T11:46:50.608Z,58.27
2019-04-05T11:49:18.474Z,50.97
2019-04-05T11:51:47.903Z,51.97
2019-04-05T11:54:18.355Z,54.13
2019-04-05T11:56:45.284Z,51.23
2019-04-05T11:59:15.565Z,49.63
2019-04-05T12:02:12.604Z,51.33
2019-04-05T12:04:42.717Z,44.93
2019-04-05T12:07:10.007Z,45.00
2019-04-05T12:09:38.235Z,48.20
2019-04-05T12:12:06.004Z,43.57
2019-04-05T12:14:36.368Z,44.57
2019-04-05T12:17:05.438Z,47.30
2019-04-05T12:19:33.633Z,44.40
2019-04-05T12:22:04.536Z,49.83
2019-04-05T12:24:32.648Z,50.47
2019-04-05T12:27:02.622Z,52.23
2019-04-05T12:29:30.645Z,46.13
2019-04-05T12:31:58.407Z,46.50
2019-04-05T12:34:28.571Z,45.20
2019-04-05T12:36:55.835Z,48.77
2019-04-05T12:39:23.563Z,49.03
2019-04-05T12:41:51.299Z,48.57
2019-04-05T12:44:19.034Z,47.83
2019-04-05T12:46:46.789Z,57.57
2019-04-05T12:49:15.302Z,49.53
2019-04-05T12:51:45.578Z,50.77
2019-04-05T12:54:13.223Z,46.57
2019-04-05T12:56:40.973Z,50.53
2019-04-05T12:59:08.734Z,46.50
2019-04-05T13:01:36.932Z,54.03
2019-04-05T13:04:04.775Z,50.07
2019-04-05T13:06:32.541Z,58.17
2019-04-05T13:09:00.414Z,53.80
2019-04-05T13:11:28.304Z,48.43
2019-04-05T13:13:57.030Z,53.77
2019-04-05T13:16:24.956Z,48.30
2019-04-05T13:18:52.756Z,53.13
2019-04-05T13:21:20.586Z,51.50
2019-04-05T13:23:48.372Z,46.30
2019-04-05T13:26:16.162Z,50.90
2019-04-05T13:28:43.936Z,46.17
2019-04-05T13:31:11.708Z,46.00
2019-04-05T13:33:39.469Z,50.50
2019-04-05T13:36:08.583Z,52.17
2019-04-05T13:38:36.426Z,51.73
2019-04-05T13:41:04.244Z,50.75
2019-04-05T13:43:32.752Z,54.37
2019-04-05T13:46:00.582Z,57.80
2019-04-05T13:48:28.486Z,56.30
2019-04-05T13:50:56.265Z,54.03
2019-04-05T13:53:24.075Z,50.80
2019-04-05T13:55:51.808Z,49.70
2019-04-05T13:58:19.573Z,52.87
2019-04-05T14:00:48.750Z,51.37
2019-04-05T14:03:20.159Z,54.73
2019-04-05T14:05:46.736Z,51.97
2019-04-05T14:08:14.522Z,56.60
2019-04-05T14:10:42.286Z,53.83
2019-04-05T14:13:10.484Z,53.90
2019-04-05T14:15:41.819Z,54.10
2019-04-05T14:18:07.889Z,52.50
2019-04-05T14:20:35.646Z,56.40
2019-04-05T14:23:03.511Z,60.17
2019-04-05T14:25:31.319Z,51.60
2019-04-05T14:27:59.115Z,55.70
2019-04-05T14:30:26.870Z,49.53
2019-04-05T14:32:55.714Z,53.70
2019-04-05T14:35:25.244Z,56.03
2019-04-05T14:37:54.527Z,47.30
2019-04-05T14:40:22.929Z,49.20
2019-04-05T14:42:50.785Z,52.07
2019-04-05T14:45:18.664Z,52.10
2019-04-05T14:47:46.442Z,54.90
2019-04-05T14:50:16.151Z,54.47
2019-04-05T14:52:44.139Z,48.83
2019-04-05T14:55:11.903Z,56.80
2019-04-05T14:57:39.677Z,54.33
2019-04-05T15:00:08.502Z,53.00
2019-04-05T15:02:36.295Z,57.43
2019-04-05T15:05:04.949Z,53.93
2019-04-05T15:07:32.702Z,51.50
2019-04-05T15:10:03.486Z,54.93
2019-04-05T15:12:30.118Z,53.90
2019-04-05T15:14:57.876Z,52.40
2019-04-05T15:17:25.644Z,48.70
2019-04-05T15:19:53.425Z,48.63
2019-04-05T15:22:21.192Z,55.87
2019-04-05T15:24:48.985Z,58.37
2019-04-05T15:27:16.732Z,49.87
2019-04-05T15:29:44.484Z,47.77
2019-04-05T15:32:12.264Z,47.83
2019-04-05T15:34:40.010Z,52.40
2019-04-05T15:37:07.758Z,49.63
2019-04-05T15:39:35.549Z,47.83
2019-04-05T15:42:03.327Z,48.20
2019-04-05T15:44:31.131Z,52.77
2019-04-05T15:46:58.889Z,54.23
2019-04-05T15:49:26.674Z,53.83
2019-04-05T15:51:55.135Z,51.27
2019-04-05T15:54:24.146Z,47.60
2019-04-05T15:56:51.891Z,57.20
2019-04-05T15:59:21.821Z,58.23
2019-04-05T16:01:49.296Z,55.17
2019-04-05T16:04:17.102Z,53.73
2019-04-05T16:06:44.899Z,54.40
2019-04-05T16:09:16.524Z,51.70
2019-04-05T16:11:44.286Z,54.37
2019-04-05T16:14:12.035Z,50.63
2019-04-05T16:16:39.803Z,51.53
2019-04-05T16:19:07.594Z,54.47
2019-04-05T16:21:35.372Z,57.00
2019-04-05T16:24:03.232Z,54.73
2019-04-05T16:26:31.093Z,57.70
2019-04-05T16:28:58.880Z,56.30
2019-04-05T16:31:26.663Z,55.90
2019-04-05T16:33:54.627Z,55.30
2019-04-05T16:36:22.415Z,57.00
2019-04-05T16:38:50.247Z,55.53
2019-04-05T16:41:18.003Z,55.63
2019-04-05T16:43:45.765Z,56.50
2019-04-05T16:46:13.541Z,56.73
2019-04-05T16:48:41.319Z,60.97
2019-04-05T16:51:09.119Z,58.20
2019-04-05T16:53:38.762Z,60.10
2019-04-05T16:56:06.570Z,59.33
2019-04-05T16:58:34.280Z,60.50
2019-04-05T17:01:02.055Z,58.77
2019-04-05T17:03:29.802Z,56.67
2019-04-05T17:05:57.552Z,56.80
2019-04-05T17:08:25.317Z,59.37
2019-04-05T17:10:53.364Z,59.27
2019-04-05T17:13:21.202Z,60.33
2019-04-05T17:15:49.196Z,59.27
2019-04-05T17:18:16.935Z,59.83
2019-04-05T17:20:44.734Z,57.63
2019-04-05T17:23:12.480Z,60.57
2019-04-05T17:25:40.230Z,58.27
2019-04-05T17:28:07.976Z,56.60
2019-04-05T17:30:36.375Z,63.43
2019-04-05T17:33:04.310Z,61.97
2019-04-05T17:35:32.076Z,61.17
2019-04-05T17:37:59.860Z,56.23
2019-04-05T17:40:27.608Z,58.70
2019-04-05T17:42:55.590Z,61.03
2019-04-05T17:45:23.341Z,59.70
2019-04-05T17:47:51.135Z,64.20
2019-04-05T17:50:31.170Z,62.80
2019-04-05T17:53:11.511Z,61.00
2019-04-05T17:55:28.572Z,58.57
2019-04-05T17:57:57.701Z,62.93
2019-04-05T18:00:25.695Z,65.33
2019-04-05T18:02:54.515Z,61.07
2019-04-05T18:05:22.320Z,62.03
2019-04-05T18:07:50.107Z,59.23
2019-04-05T18:10:18.082Z,62.87
2019-04-05T18:12:45.834Z,61.67
2019-04-05T18:15:13.668Z,59.80
2019-04-05T18:17:42.000Z,62.03
2019-04-05T18:20:10.286Z,61.23
2019-04-05T18:22:38.115Z,58.60
2019-04-05T18:25:06.134Z,64.63
2019-04-05T18:27:33.917Z,72.10
2019-04-05T18:30:02.211Z,63.77
2019-04-05T18:32:31.367Z,73.87
2019-04-05T18:34:59.294Z,72.23
2019-04-05T18:37:27.412Z,72.23
2019-04-05T18:39:55.206Z,64.70
2019-04-05T18:42:23.019Z,65.07
2019-04-05T18:44:50.869Z,64.57
2019-04-05T18:47:18.678Z,63.83
2019-04-05T18:49:46.594Z,64.97
2019-04-05T18:52:14.338Z,64.43
2019-04-05T18:54:43.267Z,63.33
2019-04-05T18:57:14.012Z,59.00
2019-04-05T18:59:41.082Z,65.20
2019-04-05T19:02:08.861Z,62.00
2019-04-05T19:04:36.662Z,68.00
2019-04-05T19:07:04.528Z,63.33
2019-04-05T19:09:32.593Z,70.00
2019-04-05T19:12:00.386Z,62.20
2019-04-05T19:14:28.182Z,62.07
2019-04-05T19:16:59.069Z,61.70
2019-04-05T19:19:25.757Z,66.30
2019-04-05T19:21:53.817Z,67.33
2019-04-05T19:24:21.819Z,65.97
2019-04-05T19:26:49.636Z,65.67
2019-04-05T19:29:17.438Z,66.87
2019-04-05T19:49:14.743Z,68.43
2019-04-05T19:51:42.498Z,68.10
2019-04-05T19:54:10.354Z,72.73
2019-04-05T19:56:38.214Z,70.90
2019-04-05T19:59:06.327Z,66.57
2019-04-05T20:01:34.085Z,67.37
2019-04-05T20:04:01.864Z,67.73
2019-04-05T20:06:29.703Z,73.83
2019-04-05T20:08:57.515Z,68.33
2019-04-05T20:11:25.349Z,70.93
2019-04-05T20:13:54.289Z,71.87
2019-04-05T20:16:23.167Z,68.30
2019-04-05T20:18:51.018Z,70.77
2019-04-05T20:21:18.801Z,65.93
2019-04-05T20:23:47.761Z,72.67
2019-04-05T20:26:15.843Z,72.90
2019-04-05T20:28:43.602Z,68.60
2019-04-05T20:31:11.380Z,67.40
2019-04-05T20:33:39.149Z,69.07
2019-04-05T20:36:06.917Z,69.43
2019-04-05T20:38:34.683Z,72.30
2019-04-05T20:41:02.583Z,66.50
2019-04-05T20:43:30.326Z,73.40
2019-04-05T20:45:58.117Z,69.03
2019-04-05T20:48:25.845Z,71.13
2019-04-05T20:50:53.629Z,68.83
2019-04-05T20:53:21.387Z,71.73
2019-04-05T20:55:50.507Z,66.37
2019-04-05T20:58:18.295Z,71.43
2019-04-05T21:00:46.065Z,69.37
2019-04-05T21:03:13.844Z,73.37
2019-04-05T21:05:41.900Z,73.27
2019-04-05T21:08:09.640Z,69.73
2019-04-05T21:10:37.383Z,68.17
2019-04-05T21:13:05.141Z,72.03
2019-04-05T21:15:32.892Z,70.00
2019-04-05T21:18:00.633Z,72.70
2019-04-05T21:20:29.490Z,66.83
2019-04-05T21:22:57.236Z,66.87
2019-04-05T21:25:25.006Z,69.57
2019-04-05T21:27:52.768Z,67.80
2019-04-05T21:30:20.503Z,72.10
2019-04-05T21:32:48.261Z,65.97
2019-04-05T21:35:16.026Z,65.97
2019-04-05T21:37:43.783Z,64.33
2019-04-05T21:40:11.919Z,69.73
2019-04-05T21:42:40.019Z,75.60
2019-04-05T21:45:08.189Z,72.50
2019-04-05T21:47:35.921Z,64.00
2019-04-05T21:50:04.295Z,66.00
2019-04-05T21:52:32.378Z,70.00
2019-04-05T21:55:00.107Z,59.80
2019-04-05T21:57:27.893Z,65.43
2019-04-05T21:59:55.623Z,65.30
2019-04-05T22:02:23.421Z,66.53
2019-04-05T22:04:51.370Z,63.83
2019-04-05T22:07:19.269Z,64.07
2019-04-05T22:09:47.113Z,67.13
2019-04-05T22:12:14.962Z,65.23
2019-04-05T22:14:42.705Z,67.07
2019-04-05T22:17:10.491Z,65.10
2019-04-05T22:19:38.235Z,64.63
2019-04-05T22:22:05.986Z,66.93
2019-04-05T22:24:33.813Z,64.13
2019-04-05T22:27:01.554Z,65.50
2019-04-05T22:29:29.289Z,61.47
2019-04-05T22:31:57.055Z,59.97
2019-04-05T22:34:24.795Z,54.67
2019-04-05T22:36:52.557Z,56.13
2019-04-05T22:39:21.531Z,65.17
2019-04-05T22:41:49.446Z,57.60
2019-04-05T22:44:17.250Z,59.97
2019-04-05T22:46:45.013Z,60.80
2019-04-05T22:49:12.765Z,61.53
2019-04-05T22:51:40.529Z,58.30
2019-04-05T22:54:08.294Z,61.63
2019-04-05T22:56:36.087Z,61.43
2019-04-05T22:59:03.808Z,59.83
2019-04-05T23:01:31.562Z,52.97
2019-04-05T23:03:59.313Z,59.33
2019-04-05T23:06:27.644Z,63.33
2019-04-05T23:08:55.375Z,61.20
2019-04-05T23:11:23.380Z,62.23
2019-04-05T23:13:51.126Z,64.27
2019-04-05T23:16:18.895Z,58.00
2019-04-05T23:18:46.606Z,56.33
2019-04-05T23:21:14.398Z,60.97
2019-04-05T23:23:42.182Z,67.03
2019-04-05T23:26:09.958Z,62.90
2019-04-05T23:28:39.851Z,61.10
2019-04-05T23:31:07.672Z,62.20
2019-04-05T23:33:35.802Z,59.40
2019-04-05T23:36:03.728Z,59.40
2019-04-05T23:38:31.826Z,58.87
2019-04-05T23:40:59.561Z,64.10
2019-04-05T23:43:27.338Z,65.03
2019-04-05T23:45:55.272Z,62.33
2019-04-05T23:48:23.066Z,60.60
2019-04-05T23:50:50.812Z,62.37
2019-04-05T23:53:18.757Z,59.73
2019-04-05T23:55:46.489Z,61.23
2019-04-05T23:58:14.253Z,66.33
